Monday, February 18, 2019, 10:59 AM GMT
Back to Local

CWSS, St. Stephen, N. B.

Location: , , Canada Lat: 45.217
Local Time: 10:59 AM GMT (10:59 GMT) Lon: -67.25
Time Zone: GMT Elev: 85 ft

Show me the last for .
Show Coded

Time T Td Feel RH Dir Speed Gust Alt SLP Vis Weather Sky Remarks
2019-02-18 10:00 8 1 - 73 320° 1 - - 30.05 0 None
2019-02-18 09:00 6 2 - 83 - Calm - - 30.06 0 None
2019-02-18 08:00 7 2 - 82 270° 1 - - 30.06 0 None
2019-02-18 07:00 7 2 - 77 340° 1 - - 30.06 0 None
2019-02-18 06:00 10 3 - 70 310° 2 - - 30.08 0 None
2019-02-18 05:00 15 4 - 60 310° 2 - - 30.05 0 None
2019-02-18 04:00 10 5 - 78 330° 2 - - 30.05 0 None
2019-02-18 03:00 13 6 - 72 310° 1 - - 30.06 0 None
2019-02-18 02:00 15 6 - 67 60° 1 - - 30.06 0 None
2019-02-18 01:00 19 5 - 53 300° 1 - - 30.03 0 None
2019-02-18 00:00 20 5 14 49 330° 5 - - 30.06 0 None
2019-02-17 23:00 21 4 - 45 300° 1 - - 30.06 0 None
2019-02-17 22:00 24 -1 18 34 290° 5 - - 30.04 0 None
2019-02-17 21:00 25 1 19 34 310° 5 - - 30.01 0 None
2019-02-17 20:00 26 2 18 34 320° 8 - - 30.02 0 None
2019-02-17 19:00 26 2 18 33 280° 8 - - 30.01 0 None
2019-02-17 18:00 26 4 18 38 280° 7 - - 30.02 0 None
2019-02-17 17:00 24 6 17 44 320° 6 - - 30.03 0 None
2019-02-17 16:00 21 4 5 46 330° 13 20 - 30.06 0 Peak wind: 20 mph (18 kts) from 310° at 22 min
2019-02-17 15:00 19 5 9 52 300° 8 - - 30.06 0 None
2019-02-17 14:00 17 5 4 58 300° 12 - - 30.04 0 None
2019-02-17 13:00 15 8 4 72 300° 8 - - 30.02 0 None
2019-02-17 12:00 11 7 - 80 290° 2 - - 30.01 0 None
2019-02-17 11:00 12 7 6 81 260° 3 - - 29.99 0 None

Support USWX by starting your Amazon purchase here.